Time;durP1;ratioP1;P1;durP2;ratioP2;P2;SDS_P1;SDS_P2;PMS_P1;PMS_P2;Temp;Humidity;BMP_temperature;BMP_pressure;BME280_temperature;BME280_humidity;BME280_pressure;Samples;Min_cycle;Max_cycle;Signal;HPM_P1;HPM_P2
2024/04/07 00:01:33;;;;;;;7.00;2.42;;;;;;;-146.27;57.51;45723.59;5028711;28;20025;-74
2024/04/07 00:03:59;;;;;;;6.38;1.15;;;;;;;-146.27;60.03;45747.47;5019795;28;20472;-73
2024/04/07 00:06:26;;;;;;;8.30;1.48;;;;;;;-146.27;61.37;45737.53;5019507;28;20053;-74
2024/04/07 00:08:52;;;;;;;12.02;1.45;;;;;;;-146.27;62.37;45667.88;5015696;28;20043;-74
2024/04/07 00:11:17;;;;;;;5.25;1.52;;;;;;;-146.27;63.42;45634.03;5024459;28;20025;-73
2024/04/07 00:13:43;;;;;;;5.18;1.50;;;;;;;-146.27;62.94;45558.41;5017141;28;20034;-73
2024/04/07 00:16:08;;;;;;;6.85;1.60;;;;;;;-146.27;63.26;45532.53;5020409;28;20394;-73
2024/04/07 00:18:34;;;;;;;11.82;1.95;;;;;;;-146.27;65.37;45520.59;5020554;28;20063;-73
2024/04/07 00:21:01;;;;;;;12.23;1.70;;;;;;;-146.27;65.23;45401.16;5020262;28;20398;-73
2024/04/07 00:23:27;;;;;;;8.18;1.85;;;;;;;-146.27;66.23;45403.16;5024612;28;20105;-74
2024/04/07 00:25:52;;;;;;;8.55;2.13;;;;;;;-146.27;67.87;45341.47;5029808;28;20025;-73
2024/04/07 00:28:18;;;;;;;13.07;2.25;;;;;;;-146.27;67.52;45158.38;5022961;28;20096;-73
2024/04/07 00:30:43;;;;;;;7.80;1.75;;;;;;;-146.27;67.87;45092.69;5024192;28;20034;-73
2024/04/07 00:33:09;;;;;;;10.57;2.38;;;;;;;-146.27;69.41;45066.81;5015225;28;20033;-73
2024/04/07 00:35:34;;;;;;;10.00;2.10;;;;;;;-146.27;70.21;44919.56;5026295;28;20079;-74
2024/04/07 00:38:00;;;;;;;8.60;1.83;;;;;;;-146.27;71.11;44714.59;5019855;28;20029;-74
2024/04/07 00:40:25;;;;;;;5.93;1.60;;;;;;;-146.27;71.28;44633.00;5037211;28;20029;-74
2024/04/07 00:42:51;;;;;;;8.40;1.95;;;;;;;-146.27;72.70;44493.72;5028450;28;20033;-73
2024/04/07 00:45:17;;;;;;;6.53;1.50;;;;;;;-146.27;73.62;44294.75;5016009;28;20027;-73
2024/04/07 00:47:42;;;;;;;10.05;1.70;;;;;;;-146.27;73.89;44131.59;5023203;28;20489;-73
2024/04/07 00:50:09;;;;;;;5.95;1.58;;;;;;;-146.27;73.97;44052.03;5016637;28;20109;-74
2024/04/07 00:52:34;;;;;;;7.75;2.30;;;;;;;-146.27;75.02;43795.38;5019712;28;20516;-73
2024/04/07 00:55:03;;;;;;;11.60;2.00;;;;;;;-146.27;75.34;43680.00;5015017;28;20116;-73
2024/04/07 00:57:29;;;;;;;8.90;2.30;;;;;;;-146.27;76.22;43518.88;5021914;28;20083;-74
2024/04/07 00:59:55;;;;;;;11.73;2.53;;;;;;;-146.27;75.88;43371.66;5016777;28;20425;-74
2024/04/07 01:02:20;;;;;;;5.97;1.75;;;;;;;-146.27;76.67;43341.81;5035343;28;20037;-73
2024/04/07 01:04:46;;;;;;;9.90;2.17;;;;;;;-146.27;75.82;43278.16;5019379;28;20034;-74
2024/04/07 01:07:12;;;;;;;7.63;1.90;;;;;;;-146.27;75.92;43399.50;5023622;28;20508;-73
2024/04/07 01:09:37;;;;;;;10.75;2.13;;;;;;;-146.27;75.21;43359.72;5011487;28;20034;-73
2024/04/07 01:12:12;;;;;;;8.73;1.55;;;;;;;-146.27;75.78;43256.28;5021940;28;20556;-74
2024/04/07 01:14:38;;;;;;;8.40;2.25;;;;;;;-146.27;76.09;43264.25;5013364;28;20045;-73
2024/04/07 01:17:06;;;;;;;6.47;1.50;;;;;;;-146.27;77.14;43264.25;5018453;28;20581;-73
2024/04/07 01:19:32;;;;;;;7.60;1.60;;;;;;;-146.27;77.38;43160.81;5015700;28;20041;-73
2024/04/07 01:21:57;;;;;;;4.85;1.42;;;;;;;-146.27;77.88;43041.47;5010181;28;20029;-73
2024/04/07 01:24:23;;;;;;;3.85;1.55;;;;;;;-146.27;77.67;42868.41;5018264;28;20034;-73
2024/04/07 01:26:48;;;;;;;3.33;1.30;;;;;;;-146.27;77.29;42830.63;5023817;28;20097;-73
2024/04/07 01:29:13;;;;;;;4.53;1.30;;;;;;;-146.27;78.16;42878.38;5029598;28;20037;-73
2024/04/07 01:31:39;;;;;;;5.97;1.38;;;;;;;-146.27;77.68;42739.16;5023465;28;20025;-73
2024/04/07 01:34:04;;;;;;;8.70;1.40;;;;;;;-146.27;78.68;42709.31;5012571;28;20670;-73
2024/04/07 01:36:30;;;;;;;5.50;1.35;;;;;;;-146.27;78.45;42588.00;5026117;28;20045;-73
2024/04/07 01:38:55;;;;;;;5.57;1.63;;;;;;;-146.27;79.34;42580.03;5025065;28;20025;-72
2024/04/07 01:41:21;;;;;;;5.97;1.50;;;;;;;-146.27;79.85;42430.88;5020858;28;21168;-73
2024/04/07 01:43:46;;;;;;;4.80;2.22;;;;;;;-146.27;80.67;42337.41;5017875;28;20022;-73
2024/04/07 01:46:12;;;;;;;8.43;2.95;;;;;;;-146.27;82.24;42267.81;5013906;28;20116;-73
2024/04/07 01:48:37;;;;;;;2.47;1.35;;;;;;;-146.27;82.10;42130.59;5017903;28;20069;-73
2024/04/07 01:51:03;;;;;;;4.63;1.17;;;;;;;-146.27;82.93;42198.19;5013228;28;20034;-73
2024/04/07 01:53:29;;;;;;;4.28;1.40;;;;;;;-146.27;82.38;42035.16;5018491;28;20036;-73
2024/04/07 01:55:54;;;;;;;5.40;1.92;;;;;;;-146.27;82.36;42053.03;5013244;28;20029;-73
2024/04/07 01:58:21;;;;;;;4.03;1.30;;;;;;;-146.27;83.01;42051.06;5013229;28;20030;-73
2024/04/07 02:00:46;;;;;;;4.70;1.23;;;;;;;-146.27;82.82;42047.06;5016303;28;20030;-73
2024/04/07 02:03:12;;;;;;;3.72;1.08;;;;;;;-146.27;83.39;42068.94;5023248;28;20040;-73
2024/04/07 02:05:37;;;;;;;5.35;1.48;;;;;;;-146.27;83.42;42005.31;5024935;28;20032;-73
2024/04/07 02:08:04;;;;;;;2.88;1.23;;;;;;;-146.27;82.97;41888.00;5014511;28;20026;-73
2024/04/07 02:10:29;;;;;;;8.15;1.00;;;;;;;-146.27;81.87;41995.38;5011336;28;20067;-73
2024/04/07 02:12:55;;;;;;;4.22;1.00;;;;;;;-146.27;82.30;42106.72;5014774;28;20033;-73
2024/04/07 02:15:20;;;;;;;6.68;1.85;;;;;;;-146.27;81.65;42021.22;5013468;28;20401;-73
2024/04/07 02:17:46;;;;;;;3.30;1.30;;;;;;;-146.27;80.99;42108.72;5017368;28;20064;-72
2024/04/07 02:20:11;;;;;;;6.63;1.23;;;;;;;-146.27;80.80;42082.88;5014200;28;20449;-73
2024/04/07 02:22:37;;;;;;;5.25;0.90;;;;;;;-146.27;81.78;42234.00;5017751;28;20062;-73
2024/04/07 02:25:04;;;;;;;5.30;0.98;;;;;;;-146.27;80.89;42124.63;5024445;28;20088;-73
2024/04/07 02:27:30;;;;;;;4.43;0.65;;;;;;;-146.27;80.21;42128.59;5023200;28;20121;-73
2024/04/07 02:29:55;;;;;;;4.32;0.90;;;;;;;-146.27;80.28;42311.56;5015495;28;20030;-73
2024/04/07 02:32:20;;;;;;;4.30;1.20;;;;;;;-146.27;80.57;42273.78;5018267;28;20033;-73
2024/04/07 02:34:46;;;;;;;3.47;0.95;;;;;;;-146.27;79.51;42232.00;5015024;28;20088;-72
2024/04/07 02:37:12;;;;;;;3.50;1.00;;;;;;;-146.27;78.55;42253.88;5027676;28;20040;-72
2024/04/07 02:39:37;;;;;;;1.63;0.60;;;;;;;-146.27;78.45;42401.06;5031668;28;20936;-72
2024/04/07 02:42:03;;;;;;;5.20;1.00;;;;;;;-146.27;77.78;42365.25;5020652;28;20060;-72
2024/04/07 02:49:56;;;;;;;5.00;1.00;;;;;;;-146.27;76.81;42580.03;5028896;28;20665;-72
2024/04/07 02:52:22;;;;;;;4.07;0.82;;;;;;;-146.27;76.00;42691.41;5015882;28;20021;-72
2024/04/07 02:54:47;;;;;;;5.25;1.08;;;;;;;-146.27;75.90;42639.69;5026725;28;20064;-72
2024/04/07 02:57:13;;;;;;;2.92;0.73;;;;;;;-146.27;75.14;42774.94;5021908;28;20025;-73
2024/04/07 02:59:38;;;;;;;5.78;1.05;;;;;;;-146.27;74.97;42715.28;5029139;28;20113;-72
2024/04/07 03:02:04;;;;;;;3.75;1.42;;;;;;;-146.27;74.79;42824.66;5017226;28;20034;-73
2024/04/07 03:04:29;;;;;;;3.33;0.90;;;;;;;-146.27;74.44;42822.69;5013332;28;20105;-72
2024/04/07 03:06:58;;;;;;;6.13;1.15;;;;;;;-146.27;74.14;42947.97;5021652;28;20076;-72
2024/04/07 03:09:24;;;;;;;1.23;0.60;;;;;;;-146.27;73.63;42926.09;5016605;28;20038;-73
2024/04/07 03:11:49;;;;;;;2.97;0.75;;;;;;;-146.27;72.88;42953.94;5013843;28;20021;-72
2024/04/07 03:14:15;;;;;;;2.67;0.70;;;;;;;-146.27;72.43;43025.56;5022814;28;20101;-72
2024/04/07 03:16:40;;;;;;;4.13;0.80;;;;;;;-146.27;72.17;42997.72;5014712;28;20029;-72
2024/04/07 03:19:06;;;;;;;7.22;2.50;;;;;;;-146.27;71.86;43136.94;5015972;28;20025;-72
2024/04/07 03:21:33;;;;;;;3.67;0.82;;;;;;;-146.27;72.50;43125.00;5014564;28;20489;-72
2024/04/07 03:23:58;;;;;;;4.00;0.82;;;;;;;-146.27;71.78;43232.41;5017171;28;20044;-72
2024/04/07 03:26:24;;;;;;;3.08;0.63;;;;;;;-146.27;71.88;43254.31;5011149;28;20026;-72
2024/04/07 03:28:49;;;;;;;4.90;0.75;;;;;;;-146.27;71.98;43266.22;5021666;28;20041;-73
2024/04/07 03:31:15;;;;;;;2.20;0.60;;;;;;;-146.27;71.58;43224.47;5027732;28;20026;-72
2024/04/07 03:33:40;;;;;;;1.92;0.80;;;;;;;-146.27;71.33;43327.91;5015845;28;20628;-72
2024/04/07 03:36:06;;;;;;;1.77;0.88;;;;;;;-146.27;70.78;43308.00;5011733;28;20565;-72
2024/04/07 03:38:32;;;;;;;4.15;0.70;;;;;;;-146.27;70.73;43296.06;5013064;28;20029;-73
2024/04/07 03:41:02;;;;;;;1.85;0.70;;;;;;;-146.27;70.50;43327.91;5011739;28;20025;-72
2024/04/07 03:43:27;;;;;;;3.58;0.65;;;;;;;-146.27;70.37;43415.41;5014790;28;20501;-72
2024/04/07 03:46:02;;;;;;;2.22;0.70;;;;;;;-146.27;70.15;43264.25;5019126;28;20084;-73
2024/04/07 03:48:30;;;;;;;4.40;0.73;;;;;;;-146.27;70.66;43435.31;5014012;28;20032;-73
2024/04/07 03:50:57;;;;;;;4.72;0.55;;;;;;;-146.27;70.09;43439.28;5018244;28;20030;-74
2024/04/07 03:53:25;;;;;;;4.95;0.65;;;;;;;-146.27;71.05;43491.00;5022406;28;20093;-73
2024/04/07 03:55:51;;;;;;;1.88;0.68;;;;;;;-146.27;71.71;43451.22;5021372;28;20068;-73
2024/04/07 03:58:16;;;;;;;3.60;1.00;;;;;;;-146.27;71.43;43395.53;5009649;28;20090;-72
2024/04/07 04:00:41;;;;;;;2.75;0.60;;;;;;;-146.27;70.09;43429.34;5040045;28;20025;-72
2024/04/07 04:03:07;;;;;;;4.28;0.55;;;;;;;-146.27;70.69;43407.47;5027770;28;20029;-71
2024/04/07 04:05:32;;;;;;;2.03;0.40;;;;;;;-146.27;70.04;43331.88;5011218;28;20587;-72
2024/04/07 04:07:57;;;;;;;2.90;1.00;;;;;;;-146.27;70.43;43455.22;5017144;28;20026;-71
2024/04/07 04:10:23;;;;;;;2.50;0.60;;;;;;;-146.27;70.30;43423.38;5018403;28;20021;-72
2024/04/07 04:12:48;;;;;;;2.92;0.70;;;;;;;-146.27;70.04;43439.28;5026418;28;20083;-71
2024/04/07 04:15:13;;;;;;;2.47;0.45;;;;;;;-146.27;70.82;43481.06;5012659;28;20025;-72
2024/04/07 04:17:39;;;;;;;2.78;0.50;;;;;;;-146.27;71.05;43459.19;5026293;28;20025;-72
2024/04/07 04:20:08;;;;;;;1.75;0.55;;;;;;;-146.27;71.03;43514.88;5011493;28;20363;-72
2024/04/07 04:22:33;;;;;;;1.58;0.50;;;;;;;-146.27;70.81;43506.94;5017709;28;20103;-71
2024/04/07 04:24:59;;;;;;;6.50;0.90;;;;;;;-146.27;70.19;43506.94;5011872;28;20470;-72
2024/04/07 04:27:24;;;;;;;3.83;0.60;;;;;;;-146.27;70.32;43479.06;5017956;28;20099;-72
2024/04/07 04:29:51;;;;;;;3.53;0.70;;;;;;;-146.27;71.04;43538.75;5014711;28;20152;-72
2024/04/07 04:32:17;;;;;;;3.63;0.82;;;;;;;-146.27;71.58;43534.78;5021354;28;20036;-72
2024/04/07 04:34:42;;;;;;;0.82;0.40;;;;;;;-146.27;70.51;43443.28;5028130;28;20445;-72
2024/04/07 04:37:08;;;;;;;2.17;0.60;;;;;;;-146.27;70.47;43510.91;5021176;28;20028;-72
2024/04/07 04:39:33;;;;;;;3.47;1.35;;;;;;;-146.27;71.69;43590.47;5024229;28;20394;-72
2024/04/07 04:41:58;;;;;;;2.45;0.60;;;;;;;-146.27;70.81;43522.84;5011768;28;20506;-72
2024/04/07 04:44:26;;;;;;;5.05;0.75;;;;;;;-146.27;70.93;43498.97;5011905;28;20363;-72
2024/04/07 04:46:51;;;;;;;1.52;0.75;;;;;;;-146.27;70.29;43498.97;5014192;28;20426;-72
2024/04/07 04:49:17;;;;;;;3.33;0.57;;;;;;;-146.27;70.10;43504.94;5021780;28;20045;-72
2024/04/07 04:51:43;;;;;;;7.07;0.90;;;;;;;-146.27;69.82;43477.09;5026736;28;20026;-73
2024/04/07 04:54:09;;;;;;;1.02;0.60;;;;;;;-146.27;71.47;43634.25;5019677;28;20094;-73
2024/04/07 04:56:35;;;;;;;1.77;0.82;;;;;;;-146.27;70.83;43540.75;5017848;28;20072;-72
2024/04/07 04:59:02;;;;;;;1.65;0.65;;;;;;;-146.27;71.85;43590.47;5010490;28;20018;-72
2024/04/07 05:01:28;;;;;;;1.15;0.70;;;;;;;-146.27;71.98;43612.34;5017726;28;20759;-72
2024/04/07 05:03:54;;;;;;;4.22;1.60;;;;;;;-146.27;71.39;43495.00;5026452;28;20037;-72
2024/04/07 05:06:20;;;;;;;1.23;0.60;;;;;;;-146.27;71.36;43526.81;5008704;28;20038;-72
2024/04/07 05:08:46;;;;;;;2.47;1.00;;;;;;;-146.27;72.24;43620.31;5010857;28;20106;-72
2024/04/07 05:11:13;;;;;;;3.28;0.68;;;;;;;-146.27;71.63;43534.78;5022721;28;20073;-72
2024/04/07 05:13:38;;;;;;;2.08;0.80;;;;;;;-146.27;72.71;43618.31;5013707;28;20493;-72
2024/04/07 05:16:04;;;;;;;2.58;1.20;;;;;;;-146.27;71.72;43570.59;5012744;28;20018;-73
2024/04/07 05:18:31;;;;;;;4.10;1.10;;;;;;;-146.27;72.33;43608.38;5020134;28;20025;-71
2024/04/07 05:21:00;;;;;;;2.28;0.90;;;;;;;-146.27;71.31;43540.75;5024964;28;20431;-72
2024/04/07 05:23:26;;;;;;;5.97;1.40;;;;;;;-146.27;71.46;43606.38;5013411;28;20026;-72
2024/04/07 05:25:51;;;;;;;3.05;1.27;;;;;;;-146.27;71.69;43566.59;5024411;28;20036;-74
2024/04/07 05:28:17;;;;;;;6.43;0.70;;;;;;;-146.27;71.45;43588.50;5013780;28;20490;-72
2024/04/07 05:30:43;;;;;;;3.22;0.77;;;;;;;-146.27;72.58;43636.22;5018938;28;20451;-73
2024/04/07 05:33:08;;;;;;;3.05;0.93;;;;;;;-146.27;72.49;43626.28;5027656;28;20116;-72
2024/04/07 05:35:34;;;;;;;6.82;0.82;;;;;;;-146.27;72.75;43638.22;5011618;28;20105;-71
2024/04/07 05:38:00;;;;;;;4.78;0.95;;;;;;;-146.27;71.99;43618.31;5018045;28;20100;-73
2024/04/07 05:40:26;;;;;;;1.35;0.63;;;;;;;-146.27;72.69;43646.19;5013410;28;20478;-72
2024/04/07 05:42:52;;;;;;;2.15;0.70;;;;;;;-146.27;72.40;43622.31;5023468;28;20026;-73
2024/04/07 05:45:18;;;;;;;5.15;0.70;;;;;;;-146.27;74.00;43687.97;5022958;28;20559;-73
2024/04/07 05:47:51;;;;;;;2.72;0.90;;;;;;;-146.27;73.37;43658.13;5016928;28;20037;-72
2024/04/07 05:50:16;;;;;;;3.42;0.85;;;;;;;-146.27;73.98;43765.53;5015127;28;20608;-73
2024/04/07 05:52:42;;;;;;;6.32;1.83;;;;;;;-146.27;72.79;43789.41;5013893;28;20025;-72
2024/04/07 05:55:08;;;;;;;2.95;0.90;;;;;;;-146.27;71.94;43749.63;5021166;28;20029;-72
2024/04/07 05:57:36;;;;;;;3.33;0.70;;;;;;;-146.27;73.21;43988.34;5015186;28;20071;-72
2024/04/07 06:00:02;;;;;;;8.48;1.08;;;;;;;-146.27;74.33;44018.19;5023472;28;20025;-72
2024/04/07 06:02:27;;;;;;;3.58;0.82;;;;;;;-146.27;73.92;43956.53;5022617;28;20029;-72
2024/04/07 06:04:52;;;;;;;1.60;1.02;;;;;;;-146.27;72.76;43918.72;5025680;28;20505;-72
2024/04/07 06:07:18;;;;;;;5.07;0.73;;;;;;;-146.27;72.73;43928.69;5013547;28;20032;-73
2024/04/07 06:09:47;;;;;;;1.58;0.88;;;;;;;-146.27;74.00;43998.31;5018014;28;20037;-72
2024/04/07 06:12:12;;;;;;;3.20;0.73;;;;;;;-146.27;73.16;43976.41;5024938;28;20033;-73
2024/04/07 06:14:38;;;;;;;3.78;0.88;;;;;;;-146.27;73.01;44004.28;5019990;28;20056;-71
2024/04/07 06:17:04;;;;;;;2.92;0.80;;;;;;;-146.27;73.26;44058.00;5014648;28;20137;-71
2024/04/07 06:19:29;;;;;;;1.55;0.70;;;;;;;-146.27;73.07;44052.03;5017106;28;20465;-71
2024/04/07 06:21:54;;;;;;;2.80;1.00;;;;;;;-146.27;73.47;44067.94;5021993;28;20521;-70
2024/04/07 06:24:20;;;;;;;2.40;0.75;;;;;;;-146.27;72.56;44056.00;5019936;28;20474;-71
2024/04/07 06:26:45;;;;;;;0.93;0.60;;;;;;;-146.27;74.08;44101.75;5020334;28;20036;-70
2024/04/07 06:29:10;;;;;;;2.30;0.77;;;;;;;-146.27;73.39;44089.81;5013146;28;20127;-69
2024/04/07 06:31:36;;;;;;;5.40;0.95;;;;;;;-146.27;73.29;44119.66;5024356;28;20055;-70
2024/04/07 06:34:01;;;;;;;4.53;1.02;;;;;;;-146.27;73.23;44105.75;5022385;28;20049;-72
2024/04/07 06:36:27;;;;;;;2.25;0.80;;;;;;;-146.27;73.75;44075.91;5013179;28;20421;-71
2024/04/07 06:38:52;;;;;;;1.15;0.70;;;;;;;-146.27;73.91;44111.72;5027660;28;20122;-71
2024/04/07 06:41:18;;;;;;;3.85;0.88;;;;;;;-146.27;74.05;44125.63;5031610;28;20482;-71
2024/04/07 06:43:43;;;;;;;7.82;1.17;;;;;;;-146.27;73.64;44097.78;5019271;28;20114;-69
2024/04/07 06:46:08;;;;;;;3.92;1.02;;;;;;;-146.27;73.62;44085.84;5022950;28;20590;-70
2024/04/07 06:48:34;;;;;;;6.70;0.75;;;;;;;-146.27;72.71;44022.19;5015570;28;20073;-68
2024/04/07 06:50:59;;;;;;;3.38;0.82;;;;;;;-146.27;73.71;44105.75;5019543;28;20382;-71
2024/04/07 06:53:25;;;;;;;2.88;0.90;;;;;;;-146.27;73.55;44056.00;5026505;28;20089;-71
2024/04/07 06:55:50;;;;;;;4.63;0.80;;;;;;;-146.27;74.01;44107.72;5014938;28;20037;-71
2024/04/07 06:58:16;;;;;;;3.15;1.30;;;;;;;-146.27;74.49;44079.88;5019375;28;20482;-70
2024/04/07 07:00:41;;;;;;;3.08;0.77;;;;;;;-146.27;73.55;43984.38;5026610;28;20029;-69
2024/04/07 07:03:06;;;;;;;5.25;0.70;;;;;;;-146.27;73.62;44063.97;5024568;28;20104;-69
2024/04/07 07:05:32;;;;;;;0.80;0.65;;;;;;;-146.27;73.92;44095.78;5032696;28;20071;-69
2024/04/07 07:07:58;;;;;;;1.58;0.68;;;;;;;-146.27;73.28;44052.03;5019920;28;20044;-70
2024/04/07 07:10:23;;;;;;;4.97;1.00;;;;;;;-146.27;73.80;44077.88;5025278;28;20036;-71
2024/04/07 07:12:48;;;;;;;4.80;1.23;;;;;;;-146.27;73.33;44059.97;5023082;28;20029;-70
2024/04/07 07:15:14;;;;;;;3.25;1.35;;;;;;;-146.27;73.11;44087.84;5011838;28;20025;-71
2024/04/07 07:17:39;;;;;;;2.85;1.10;;;;;;;-146.27;73.31;44215.16;5016694;28;20032;-71
2024/04/07 07:20:05;;;;;;;3.55;0.77;;;;;;;-146.27;72.44;44103.75;5022165;28;20025;-70
2024/04/07 07:22:30;;;;;;;5.13;1.17;;;;;;;-146.27;72.28;44107.72;5012050;28;20052;-70
2024/04/07 07:24:55;;;;;;;5.50;1.13;;;;;;;-146.27;71.68;44073.91;5026817;28;20473;-71
2024/04/07 07:27:21;;;;;;;4.03;0.98;;;;;;;-146.27;72.07;44083.84;5014003;28;20046;-73
2024/04/07 07:29:46;;;;;;;5.65;1.40;;;;;;;-146.27;72.68;44089.81;5022238;28;20394;-72
2024/04/07 07:32:11;;;;;;;4.75;0.85;;;;;;;-146.27;73.62;44145.53;5023413;28;20443;-74
2024/04/07 07:34:37;;;;;;;3.55;0.90;;;;;;;-146.27;73.25;44093.81;5031800;28;20524;-73
2024/04/07 07:37:02;;;;;;;3.55;0.93;;;;;;;-146.27;73.51;44177.38;5016451;28;20021;-74
2024/04/07 07:39:28;;;;;;;2.40;0.85;;;;;;;-146.27;73.16;44135.59;5030970;28;20057;-73
2024/04/07 07:41:53;;;;;;;7.90;0.95;;;;;;;-146.27;72.74;44056.00;5032185;28;20037;-74
2024/04/07 07:44:19;;;;;;;2.97;1.10;;;;;;;-146.27;73.01;44056.00;5040938;28;20046;-76
2024/04/07 07:46:44;;;;;;;3.60;1.23;;;;;;;-146.27;72.18;44083.84;5029115;28;20495;-74
2024/04/07 07:49:10;;;;;;;2.92;1.10;;;;;;;-146.27;71.67;44151.50;5025707;28;20038;-76
2024/04/07 07:51:35;;;;;;;5.53;1.30;;;;;;;-146.27;71.73;44131.59;5020700;28;20033;-76
2024/04/07 07:54:00;;;;;;;4.38;0.95;;;;;;;-146.27;70.19;44159.47;5023691;28;20064;-75
2024/04/07 07:56:26;;;;;;;6.22;1.13;;;;;;;-146.27;69.79;44175.38;5012429;28;20036;-76
2024/04/07 07:58:51;;;;;;;3.70;0.88;;;;;;;-146.27;69.72;44298.75;5012896;28;20029;-76
2024/04/07 08:01:17;;;;;;;6.40;1.50;;;;;;;-146.27;69.16;44209.19;5024809;28;20659;-74
2024/04/07 08:03:42;;;;;;;2.95;0.80;;;;;;;-146.27;70.03;44314.66;5035625;28;20041;-75
2024/04/07 08:06:07;;;;;;;5.72;1.20;;;;;;;-146.27;69.27;44193.28;5028121;28;20030;-75
2024/04/07 08:08:33;;;;;;;2.25;0.88;;;;;;;-146.27;68.51;44294.75;5035891;28;20473;-74
2024/04/07 08:10:59;;;;;;;7.15;1.33;;;;;;;-146.27;68.36;44215.16;5018049;28;20504;-74
2024/04/07 08:13:24;;;;;;;6.72;0.85;;;;;;;-146.27;68.74;44302.72;5019838;28;20029;-75
2024/04/07 08:15:50;;;;;;;7.28;1.17;;;;;;;-146.27;68.52;44420.09;5021713;28;20464;-75
2024/04/07 08:18:16;;;;;;;4.93;0.90;;;;;;;-146.27;67.22;44326.59;5020454;28;20616;-75
2024/04/07 08:20:42;;;;;;;3.53;1.20;;;;;;;-146.27;67.39;44418.13;5016849;28;20049;-75
2024/04/07 08:23:09;;;;;;;5.40;1.02;;;;;;;-146.27;64.23;44513.63;5016396;28;20078;-75
2024/04/07 08:25:34;;;;;;;7.15;1.92;;;;;;;-146.27;63.11;44654.91;5018367;28;20033;-75
2024/04/07 08:28:00;;;;;;;4.10;1.35;;;;;;;-146.27;62.71;44581.28;5022042;28;20046;-75
2024/04/07 08:30:26;;;;;;;8.85;1.42;;;;;;;-146.27;59.51;44672.81;5017332;28;20038;-76
2024/04/07 08:32:52;;;;;;;5.65;0.93;;;;;;;-146.27;59.84;44734.50;5021260;28;20033;-75
2024/04/07 08:35:18;;;;;;;5.60;1.02;;;;;;;-146.27;59.33;44792.22;5011518;28;20401;-77
2024/04/07 08:37:43;;;;;;;2.75;0.95;;;;;;;-146.27;60.21;44772.31;5014268;28;20033;-74
2024/04/07 08:40:09;;;;;;;4.97;0.88;;;;;;;-146.27;59.78;44732.50;5028546;28;20633;-74
2024/04/07 08:42:34;;;;;;;5.63;0.93;;;;;;;-146.27;61.23;44633.00;5025087;28;20076;-74
2024/04/07 08:45:03;;;;;;;6.32;1.02;;;;;;;-146.27;64.21;44652.91;5025848;28;20472;-74
2024/04/07 08:47:29;;;;;;;5.13;0.95;;;;;;;-146.27;64.30;44583.28;5015499;28;20033;-74
2024/04/07 08:49:56;;;;;;;3.92;1.27;;;;;;;-146.27;64.65;44489.75;5012753;28;20406;-74
2024/04/07 08:52:22;;;;;;;3.85;0.85;;;;;;;-146.27;65.04;44609.13;5026127;28;20025;-73
2024/04/07 08:54:48;;;;;;;4.45;0.90;;;;;;;-146.27;64.48;44418.13;5027210;28;20544;-72
2024/04/07 08:57:15;;;;;;;4.13;1.02;;;;;;;-146.27;65.15;44561.38;5018238;28;20410;-73
2024/04/07 08:59:41;;;;;;;3.50;1.13;;;;;;;-146.27;63.68;44601.19;5025924;28;20026;-74
2024/04/07 09:02:09;;;;;;;4.22;0.70;;;;;;;-146.27;63.09;44607.16;5024860;28;20065;-74
2024/04/07 09:04:34;;;;;;;9.95;1.23;;;;;;;-146.27;62.51;44463.88;5016416;28;20033;-73
2024/04/07 09:07:03;;;;;;;3.40;0.85;;;;;;;-146.27;61.84;44676.78;5014743;28;20033;-74
2024/04/07 09:09:29;;;;;;;5.22;1.00;;;;;;;-146.27;58.79;44692.72;5018489;28;20072;-73
2024/04/07 09:11:54;;;;;;;3.15;0.85;;;;;;;-146.27;56.36;44820.06;5033375;28;20090;-73
2024/04/07 09:14:20;;;;;;;4.22;1.50;;;;;;;-146.27;54.68;44905.63;5028751;28;20389;-68
2024/04/07 09:16:45;;;;;;;8.93;1.10;;;;;;;-146.27;54.95;45050.91;5031001;28;20108;-70
2024/04/07 09:19:11;;;;;;;3.75;0.90;;;;;;;-146.27;54.14;44987.22;5027262;28;20083;-69
2024/04/07 09:21:36;;;;;;;5.38;1.27;;;;;;;-146.27;54.38;45072.78;5031001;28;20021;-69
2024/04/07 09:24:02;;;;;;;3.95;1.00;;;;;;;-146.27;53.67;44887.72;5030587;28;20022;-69
2024/04/07 09:26:28;;;;;;;4.63;1.02;;;;;;;-146.27;53.60;45031.00;5036148;28;20025;-73
2024/04/07 09:28:53;;;;;;;10.35;1.27;;;;;;;-146.27;52.08;45098.66;5022499;28;20059;-68
2024/04/07 09:31:20;;;;;;;5.70;1.13;;;;;;;-146.27;51.35;45190.22;5027190;28;20087;-72
2024/04/07 09:33:47;;;;;;;4.65;1.00;;;;;;;-146.27;50.28;45263.84;5033627;28;20040;-69
2024/04/07 09:36:13;;;;;;;3.97;0.80;;;;;;;-146.27;49.66;45309.63;5032984;28;20033;-69
2024/04/07 09:38:39;;;;;;;4.15;1.10;;;;;;;-146.27;50.08;45124.53;5044114;28;20118;-68
2024/04/07 09:41:04;;;;;;;3.47;1.13;;;;;;;-146.27;51.15;45281.75;5034149;28;20032;-68
2024/04/07 09:43:31;;;;;;;6.78;1.13;;;;;;;-146.27;52.47;45170.31;5034457;28;20497;-69
2024/04/07 09:45:57;;;;;;;4.65;1.40;;;;;;;-146.27;51.32;44885.72;5026919;28;20501;-74
2024/04/07 14:06:33;;;;;;;4.30;0.80;;;;;;;-146.27;34.23;46710.94;5128572;27;20378;-70
2024/04/07 14:08:58;;;;;;;2.30;0.68;;;;;;;-146.27;32.63;46730.88;5122430;27;20379;-72
2024/04/07 14:11:24;;;;;;;1.13;0.50;;;;;;;-146.27;31.46;46838.38;5124350;27;20092;-73
2024/04/07 14:13:49;;;;;;;2.78;0.60;;;;;;;-146.27;30.72;46949.88;5127929;27;20023;-72
2024/04/07 14:16:14;;;;;;;5.03;0.55;;;;;;;-146.27;29.74;47057.38;5126176;27;20115;-74
2024/04/07 14:18:42;;;;;;;1.85;0.52;;;;;;;-146.27;29.21;47220.66;5128612;27;20110;-76
2024/04/07 14:21:08;;;;;;;5.95;0.95;;;;;;;-146.27;29.07;47208.72;5126004;27;20141;-74
2024/04/07 14:23:33;;;;;;;3.35;0.75;;;;;;;-146.27;28.22;47272.44;5126339;28;20531;-74
2024/04/07 14:25:58;;;;;;;4.50;0.95;;;;;;;-146.27;28.40;47254.50;5132948;27;20475;-72
2024/04/07 14:28:24;;;;;;;3.30;1.05;;;;;;;-146.27;27.88;47356.06;5127707;27;20507;-72
2024/04/07 14:30:49;;;;;;;3.30;0.90;;;;;;;-146.27;28.24;47270.44;5131247;27;20050;-70
2024/04/07 14:33:14;;;;;;;2.00;0.50;;;;;;;-146.27;28.28;47427.75;5137645;27;20387;-71
2024/04/07 14:35:41;;;;;;;5.43;0.95;;;;;;;-146.27;29.21;47260.47;5126730;27;20064;-68
2024/04/07 14:41:39;;;;;;;1.85;0.60;;;;;;;-146.27;28.79;47419.78;5065808;28;20402;-67
2024/04/07 14:44:05;;;;;;;4.03;0.77;;;;;;;-146.27;28.34;47425.75;5065080;28;20413;-67
2024/04/07 14:46:32;;;;;;;1.38;0.57;;;;;;;-146.27;28.24;47495.44;5066395;28;20025;-68
2024/04/07 14:48:58;;;;;;;3.20;0.70;;;;;;;-146.27;28.68;47371.97;5065224;28;20021;-65
2024/04/07 14:51:23;;;;;;;1.83;0.60;;;;;;;-146.27;28.89;47407.81;5073242;28;20032;-67
2024/04/07 14:53:48;;;;;;;2.70;0.88;;;;;;;-146.27;30.24;47304.28;5075629;28;20082;-68
2024/04/07 14:56:15;;;;;;;3.97;0.60;;;;;;;-146.27;29.82;47332.16;5062286;28;20021;-68
2024/04/07 14:58:41;;;;;;;47.42;2.97;;;;;;;-146.27;30.07;47250.53;5067297;28;20443;-67
2024/04/07 15:01:06;;;;;;;2.75;0.50;;;;;;;-146.27;29.58;47192.78;5071097;28;20016;-68
2024/04/07 15:03:33;;;;;;;3.13;0.70;;;;;;;-146.27;30.47;47194.78;5061989;28;20037;-66
2024/04/07 15:06:01;;;;;;;1.95;0.70;;;;;;;-146.27;31.60;47256.50;5056625;28;20396;-67
2024/04/07 15:08:27;;;;;;;4.05;0.80;;;;;;;-146.27;31.37;47260.47;5062021;28;20020;-67
2024/04/07 15:10:58;;;;;;;2.65;0.77;;;;;;;-146.27;31.17;47222.66;5052707;28;20480;-67
2024/04/07 15:13:25;;;;;;;5.47;1.48;;;;;;;-146.27;30.84;47113.13;5050467;28;20112;-66
2024/04/07 15:15:51;;;;;;;4.32;1.02;;;;;;;-146.27;31.08;47252.50;5053742;28;20115;-67
2024/04/07 15:18:16;;;;;;;16.55;7.63;;;;;;;-146.27;30.61;47218.66;5063854;28;20025;-68
2024/04/07 15:20:52;;;;;;;9.90;1.73;;;;;;;-146.27;29.52;47306.28;5075681;28;20548;-67
2024/04/07 15:23:17;;;;;;;4.68;1.08;;;;;;;-146.27;29.84;47160.91;5071512;28;20041;-67
2024/04/07 15:25:43;;;;;;;5.07;1.10;;;;;;;-146.27;29.90;47057.38;5058750;28;20047;-68
2024/04/07 15:28:08;;;;;;;4.07;1.20;;;;;;;-146.27;30.82;47071.31;5058381;28;20036;-68
2024/04/07 15:30:34;;;;;;;7.25;1.40;;;;;;;-146.27;32.24;47174.84;5051449;28;20579;-66
2024/04/07 15:32:59;;;;;;;4.65;0.95;;;;;;;-146.27;32.89;47065.34;5059502;28;20385;-67
2024/04/07 15:35:25;;;;;;;6.45;1.38;;;;;;;-146.27;32.52;47105.16;5057073;28;20032;-66
2024/04/07 15:37:50;;;;;;;5.25;1.50;;;;;;;-146.27;32.55;47172.88;5055784;28;20082;-72